sensor_id;sensor_type;location;lat;lon;timestamp;temperature;humidity
30999;DHT22;20549;50.042;8.968;2022-10-31T00:00:46;12.80;99.90
30999;DHT22;20549;50.042;8.968;2022-10-31T00:03:12;12.80;99.90
30999;DHT22;20549;50.042;8.968;2022-10-31T00:05:47;12.80;99.90
30999;DHT22;20549;50.042;8.968;2022-10-31T00:08:08;12.70;99.90
30999;DHT22;20549;50.042;8.968;2022-10-31T00:10:37;12.70;99.90
30999;DHT22;20549;50.042;8.968;2022-10-31T00:13:01;12.70;99.90
30999;DHT22;20549;50.042;8.968;2022-10-31T00:15:28;12.70;99.90
30999;DHT22;20549;50.042;8.968;2022-10-31T00:17:54;12.60;99.90
30999;DHT22;20549;50.042;8.968;2022-10-31T00:20:21;12.60;99.90
30999;DHT22;20549;50.042;8.968;2022-10-31T00:22:47;12.60;99.90
30999;DHT22;20549;50.042;8.968;2022-10-31T00:25:14;12.60;99.90
30999;DHT22;20549;50.042;8.968;2022-10-31T00:27:41;12.60;99.90
30999;DHT22;20549;50.042;8.968;2022-10-31T00:30:07;12.60;99.90
30999;DHT22;20549;50.042;8.968;2022-10-31T00:32:34;12.50;99.90
30999;DHT22;20549;50.042;8.968;2022-10-31T00:35:00;12.50;99.90
30999;DHT22;20549;50.042;8.968;2022-10-31T00:37:27;12.50;99.90
30999;DHT22;20549;50.042;8.968;2022-10-31T00:39:53;12.50;99.90
30999;DHT22;20549;50.042;8.968;2022-10-31T00:42:20;12.50;99.90
30999;DHT22;20549;50.042;8.968;2022-10-31T00:44:47;12.40;99.90
30999;DHT22;20549;50.042;8.968;2022-10-31T00:47:13;12.40;99.90
30999;DHT22;20549;50.042;8.968;2022-10-31T00:49:40;12.40;99.90
30999;DHT22;20549;50.042;8.968;2022-10-31T00:52:06;12.40;99.90
30999;DHT22;20549;50.042;8.968;2022-10-31T00:54:33;12.40;99.90
30999;DHT22;20549;50.042;8.968;2022-10-31T00:57:00;12.40;99.90
30999;DHT22;20549;50.042;8.968;2022-10-31T00:59:26;12.30;99.90
30999;DHT22;20549;50.042;8.968;2022-10-31T01:01:53;12.30;99.90
30999;DHT22;20549;50.042;8.968;2022-10-31T01:04:19;12.30;99.90
30999;DHT22;20549;50.042;8.968;2022-10-31T01:06:46;12.30;99.90
30999;DHT22;20549;50.042;8.968;2022-10-31T01:09:13;12.20;99.90
30999;DHT22;20549;50.042;8.968;2022-10-31T01:11:39;12.20;99.90
30999;DHT22;20549;50.042;8.968;2022-10-31T01:14:06;12.20;99.90
30999;DHT22;20549;50.042;8.968;2022-10-31T01:16:32;12.20;99.90
30999;DHT22;20549;50.042;8.968;2022-10-31T01:18:59;12.10;99.90
30999;DHT22;20549;50.042;8.968;2022-10-31T01:21:26;12.10;99.90
30999;DHT22;20549;50.042;8.968;2022-10-31T01:23:55;12.10;99.90
30999;DHT22;20549;50.042;8.968;2022-10-31T01:26:25;12.00;99.90
30999;DHT22;20549;50.042;8.968;2022-10-31T01:28:52;12.00;99.90
30999;DHT22;20549;50.042;8.968;2022-10-31T01:31:18;12.00;99.90
30999;DHT22;20549;50.042;8.968;2022-10-31T01:33:44;11.90;99.90
30999;DHT22;20549;50.042;8.968;2022-10-31T01:36:18;12.00;99.90
30999;DHT22;20549;50.042;8.968;2022-10-31T01:38:43;11.90;99.90
30999;DHT22;20549;50.042;8.968;2022-10-31T01:41:10;11.90;99.90
30999;DHT22;20549;50.042;8.968;2022-10-31T01:46:15;11.90;99.90
30999;DHT22;20549;50.042;8.968;2022-10-31T01:48:41;11.80;99.90
30999;DHT22;20549;50.042;8.968;2022-10-31T01:51:08;11.80;99.90
30999;DHT22;20549;50.042;8.968;2022-10-31T01:53:34;11.80;99.90
30999;DHT22;20549;50.042;8.968;2022-10-31T01:56:01;11.70;99.90
30999;DHT22;20549;50.042;8.968;2022-10-31T01:58:28;11.70;99.90
30999;DHT22;20549;50.042;8.968;2022-10-31T02:00:55;11.70;99.90
30999;DHT22;20549;50.042;8.968;2022-10-31T02:03:21;11.70;99.90
30999;DHT22;20549;50.042;8.968;2022-10-31T02:05:47;11.70;99.90
30999;DHT22;20549;50.042;8.968;2022-10-31T02:08:16;11.70;99.90
30999;DHT22;20549;50.042;8.968;2022-10-31T02:10:40;11.70;99.90
30999;DHT22;20549;50.042;8.968;2022-10-31T02:13:07;11.70;99.90
30999;DHT22;20549;50.042;8.968;2022-10-31T02:15:34;11.60;99.90
30999;DHT22;20549;50.042;8.968;2022-10-31T02:18:00;11.60;99.90
30999;DHT22;20549;50.042;8.968;2022-10-31T02:20:35;11.60;99.90
30999;DHT22;20549;50.042;8.968;2022-10-31T02:25:45;11.60;99.90
30999;DHT22;20549;50.042;8.968;2022-10-31T02:28:24;11.50;99.90
30999;DHT22;20549;50.042;8.968;2022-10-31T02:30:55;11.50;99.90
30999;DHT22;20549;50.042;8.968;2022-10-31T02:34:07;11.50;99.90
30999;DHT22;20549;50.042;8.968;2022-10-31T02:36:04;11.50;99.90
30999;DHT22;20549;50.042;8.968;2022-10-31T02:43:49;11.50;99.90
30999;DHT22;20549;50.042;8.968;2022-10-31T02:46:13;11.50;99.90
30999;DHT22;20549;50.042;8.968;2022-10-31T02:48:38;11.50;99.90
30999;DHT22;20549;50.042;8.968;2022-10-31T02:51:05;11.50;99.90
30999;DHT22;20549;50.042;8.968;2022-10-31T02:53:35;11.50;99.90
30999;DHT22;20549;50.042;8.968;2022-10-31T02:56:10;11.50;99.90
30999;DHT22;20549;50.042;8.968;2022-10-31T02:58:35;11.60;99.90
30999;DHT22;20549;50.042;8.968;2022-10-31T03:01:21;11.60;99.90
30999;DHT22;20549;50.042;8.968;2022-10-31T03:06:37;11.60;99.90
30999;DHT22;20549;50.042;8.968;2022-10-31T03:09:08;11.60;99.90
30999;DHT22;20549;50.042;8.968;2022-10-31T03:11:37;11.70;99.90
30999;DHT22;20549;50.042;8.968;2022-10-31T03:14:00;11.70;99.90
30999;DHT22;20549;50.042;8.968;2022-10-31T03:19:08;11.80;99.90
30999;DHT22;20549;50.042;8.968;2022-10-31T03:21:45;11.80;99.90
30999;DHT22;20549;50.042;8.968;2022-10-31T03:24:01;11.80;99.90
30999;DHT22;20549;50.042;8.968;2022-10-31T03:26:27;11.90;99.90
30999;DHT22;20549;50.042;8.968;2022-10-31T03:29:01;11.90;99.90
30999;DHT22;20549;50.042;8.968;2022-10-31T03:31:28;11.90;99.90
30999;DHT22;20549;50.042;8.968;2022-10-31T03:33:53;12.00;99.90
30999;DHT22;20549;50.042;8.968;2022-10-31T03:36:20;12.00;99.90
30999;DHT22;20549;50.042;8.968;2022-10-31T03:38:46;12.00;99.90
30999;DHT22;20549;50.042;8.968;2022-10-31T03:41:19;12.00;99.90
30999;DHT22;20549;50.042;8.968;2022-10-31T03:43:42;12.00;99.90
30999;DHT22;20549;50.042;8.968;2022-10-31T03:46:08;12.00;99.90
30999;DHT22;20549;50.042;8.968;2022-10-31T03:48:35;12.00;99.90
30999;DHT22;20549;50.042;8.968;2022-10-31T03:53:34;12.00;99.90
30999;DHT22;20549;50.042;8.968;2022-10-31T03:56:11;12.00;99.90
30999;DHT22;20549;50.042;8.968;2022-10-31T03:58:47;12.00;99.90
30999;DHT22;20549;50.042;8.968;2022-10-31T04:01:11;12.00;99.90
30999;DHT22;20549;50.042;8.968;2022-10-31T04:03:38;12.00;99.90
30999;DHT22;20549;50.042;8.968;2022-10-31T04:06:08;12.00;99.90
30999;DHT22;20549;50.042;8.968;2022-10-31T04:08:37;12.00;99.90
30999;DHT22;20549;50.042;8.968;2022-10-31T04:11:01;12.00;99.90
30999;DHT22;20549;50.042;8.968;2022-10-31T04:13:28;12.10;99.90
30999;DHT22;20549;50.042;8.968;2022-10-31T04:15:55;12.10;99.90
30999;DHT22;20549;50.042;8.968;2022-10-31T04:18:22;12.10;99.90
30999;DHT22;20549;50.042;8.968;2022-10-31T04:20:49;12.10;99.90
30999;DHT22;20549;50.042;8.968;2022-10-31T04:23:25;12.10;99.90
30999;DHT22;20549;50.042;8.968;2022-10-31T04:25:51;12.00;99.90
30999;DHT22;20549;50.042;8.968;2022-10-31T04:28:18;12.10;99.90
30999;DHT22;20549;50.042;8.968;2022-10-31T04:30:44;12.10;99.90
30999;DHT22;20549;50.042;8.968;2022-10-31T04:33:11;12.10;99.90
30999;DHT22;20549;50.042;8.968;2022-10-31T04:35:37;12.00;99.90
30999;DHT22;20549;50.042;8.968;2022-10-31T04:38:04;12.10;99.90
30999;DHT22;20549;50.042;8.968;2022-10-31T04:40:30;12.10;99.90
30999;DHT22;20549;50.042;8.968;2022-10-31T04:42:57;12.00;99.90
30999;DHT22;20549;50.042;8.968;2022-10-31T04:45:24;12.10;99.90
30999;DHT22;20549;50.042;8.968;2022-10-31T04:47:50;12.10;99.90
30999;DHT22;20549;50.042;8.968;2022-10-31T04:50:17;12.10;99.90
30999;DHT22;20549;50.042;8.968;2022-10-31T04:52:44;12.10;99.90
30999;DHT22;20549;50.042;8.968;2022-10-31T04:55:10;12.10;99.90
30999;DHT22;20549;50.042;8.968;2022-10-31T04:57:40;12.10;99.90
30999;DHT22;20549;50.042;8.968;2022-10-31T05:00:07;12.10;99.90
30999;DHT22;20549;50.042;8.968;2022-10-31T05:02:34;12.10;99.90
30999;DHT22;20549;50.042;8.968;2022-10-31T05:05:00;12.20;99.90
30999;DHT22;20549;50.042;8.968;2022-10-31T05:07:27;12.10;99.90
30999;DHT22;20549;50.042;8.968;2022-10-31T05:09:53;12.20;99.90
30999;DHT22;20549;50.042;8.968;2022-10-31T05:12:20;12.10;99.90
30999;DHT22;20549;50.042;8.968;2022-10-31T05:14:46;12.10;99.90
30999;DHT22;20549;50.042;8.968;2022-10-31T05:17:13;12.00;99.90
30999;DHT22;20549;50.042;8.968;2022-10-31T05:19:40;12.00;99.90
30999;DHT22;20549;50.042;8.968;2022-10-31T05:22:06;12.00;99.90
30999;DHT22;20549;50.042;8.968;2022-10-31T05:24:33;12.00;99.90
30999;DHT22;20549;50.042;8.968;2022-10-31T05:26:59;11.90;99.90
30999;DHT22;20549;50.042;8.968;2022-10-31T05:29:26;11.90;99.90
30999;DHT22;20549;50.042;8.968;2022-10-31T05:31:53;11.90;99.90
30999;DHT22;20549;50.042;8.968;2022-10-31T05:34:19;11.90;99.90
30999;DHT22;20549;50.042;8.968;2022-10-31T05:36:46;11.80;99.90
30999;DHT22;20549;50.042;8.968;2022-10-31T05:39:12;11.80;99.90
30999;DHT22;20549;50.042;8.968;2022-10-31T05:41:39;11.80;99.90
30999;DHT22;20549;50.042;8.968;2022-10-31T05:44:05;11.80;99.90
30999;DHT22;20549;50.042;8.968;2022-10-31T05:46:32;11.80;99.90
30999;DHT22;20549;50.042;8.968;2022-10-31T05:48:59;11.80;99.90
30999;DHT22;20549;50.042;8.968;2022-10-31T05:51:25;11.90;99.90
30999;DHT22;20549;50.042;8.968;2022-10-31T05:53:52;11.80;99.90
30999;DHT22;20549;50.042;8.968;2022-10-31T05:56:18;11.80;99.90
30999;DHT22;20549;50.042;8.968;2022-10-31T05:58:45;11.80;99.90
30999;DHT22;20549;50.042;8.968;2022-10-31T06:01:12;11.80;99.90
30999;DHT22;20549;50.042;8.968;2022-10-31T06:03:38;11.80;99.90
30999;DHT22;20549;50.042;8.968;2022-10-31T06:06:05;11.70;99.90
30999;DHT22;20549;50.042;8.968;2022-10-31T06:08:31;11.70;99.90
30999;DHT22;20549;50.042;8.968;2022-10-31T06:10:58;11.70;99.90
30999;DHT22;20549;50.042;8.968;2022-10-31T06:13:25;11.70;99.90
30999;DHT22;20549;50.042;8.968;2022-10-31T06:15:51;11.60;99.90
30999;DHT22;20549;50.042;8.968;2022-10-31T06:18:18;11.60;99.90
30999;DHT22;20549;50.042;8.968;2022-10-31T06:20:44;11.60;99.90
30999;DHT22;20549;50.042;8.968;2022-10-31T06:23:11;11.60;99.90
30999;DHT22;20549;50.042;8.968;2022-10-31T06:25:37;11.60;99.90
30999;DHT22;20549;50.042;8.968;2022-10-31T06:28:04;11.60;99.90
30999;DHT22;20549;50.042;8.968;2022-10-31T06:33:09;11.60;99.90
30999;DHT22;20549;50.042;8.968;2022-10-31T06:35:35;11.70;99.90
30999;DHT22;20549;50.042;8.968;2022-10-31T06:38:02;11.70;99.90
30999;DHT22;20549;50.042;8.968;2022-10-31T06:40:28;11.80;99.90
30999;DHT22;20549;50.042;8.968;2022-10-31T06:42:58;11.80;99.90
30999;DHT22;20549;50.042;8.968;2022-10-31T06:45:24;11.90;99.90
30999;DHT22;20549;50.042;8.968;2022-10-31T06:47:54;12.00;99.90
30999;DHT22;20549;50.042;8.968;2022-10-31T06:50:21;12.20;99.90
30999;DHT22;20549;50.042;8.968;2022-10-31T06:52:53;12.40;99.90
30999;DHT22;20549;50.042;8.968;2022-10-31T06:55:19;12.70;99.90
30999;DHT22;20549;50.042;8.968;2022-10-31T06:57:49;13.00;99.90
30999;DHT22;20549;50.042;8.968;2022-10-31T07:00:12;13.30;99.90
30999;DHT22;20549;50.042;8.968;2022-10-31T07:02:39;13.60;99.90
30999;DHT22;20549;50.042;8.968;2022-10-31T07:05:05;14.00;99.90
30999;DHT22;20549;50.042;8.968;2022-10-31T07:07:32;14.30;99.90
30999;DHT22;20549;50.042;8.968;2022-10-31T07:09:58;14.70;99.90
30999;DHT22;20549;50.042;8.968;2022-10-31T07:12:25;15.00;99.90
30999;DHT22;20549;50.042;8.968;2022-10-31T07:14:51;15.40;99.90
30999;DHT22;20549;50.042;8.968;2022-10-31T07:17:18;15.80;99.90
30999;DHT22;20549;50.042;8.968;2022-10-31T07:19:45;16.20;99.90
30999;DHT22;20549;50.042;8.968;2022-10-31T07:22:11;16.60;99.90
30999;DHT22;20549;50.042;8.968;2022-10-31T07:24:38;17.00;99.90
30999;DHT22;20549;50.042;8.968;2022-10-31T07:29:39;17.50;99.90
30999;DHT22;20549;50.042;8.968;2022-10-31T07:32:06;18.50;99.90
30999;DHT22;20549;50.042;8.968;2022-10-31T07:34:33;18.90;99.90
30999;DHT22;20549;50.042;8.968;2022-10-31T07:36:59;19.40;99.90
30999;DHT22;20549;50.042;8.968;2022-10-31T07:39:26;19.80;99.90
30999;DHT22;20549;50.042;8.968;2022-10-31T07:41:52;20.10;99.90
30999;DHT22;20549;50.042;8.968;2022-10-31T07:44:19;20.50;99.90
30999;DHT22;20549;50.042;8.968;2022-10-31T07:46:46;20.80;99.30
30999;DHT22;20549;50.042;8.968;2022-10-31T07:49:12;21.10;97.80
30999;DHT22;20549;50.042;8.968;2022-10-31T07:51:39;21.40;96.60
30999;DHT22;20549;50.042;8.968;2022-10-31T07:54:05;21.70;95.80
30999;DHT22;20549;50.042;8.968;2022-10-31T07:56:32;21.90;93.70
30999;DHT22;20549;50.042;8.968;2022-10-31T07:58:59;22.00;91.80
30999;DHT22;20549;50.042;8.968;2022-10-31T08:01:25;22.00;90.20
30999;DHT22;20549;50.042;8.968;2022-10-31T08:03:52;21.90;88.20
30999;DHT22;20549;50.042;8.968;2022-10-31T08:06:18;21.70;86.70
30999;DHT22;20549;50.042;8.968;2022-10-31T08:08:45;21.50;85.30
30999;DHT22;20549;50.042;8.968;2022-10-31T08:11:11;21.20;84.30
30999;DHT22;20549;50.042;8.968;2022-10-31T08:13:38;20.90;83.90
30999;DHT22;20549;50.042;8.968;2022-10-31T08:16:05;20.60;84.00
30999;DHT22;20549;50.042;8.968;2022-10-31T08:18:31;20.30;84.60
30999;DHT22;20549;50.042;8.968;2022-10-31T08:20:58;20.00;85.20
30999;DHT22;20549;50.042;8.968;2022-10-31T08:23:24;19.90;87.30
30999;DHT22;20549;50.042;8.968;2022-10-31T08:25:51;19.70;89.70
30999;DHT22;20549;50.042;8.968;2022-10-31T08:28:18;19.60;90.10
30999;DHT22;20549;50.042;8.968;2022-10-31T08:30:44;19.60;90.00
30999;DHT22;20549;50.042;8.968;2022-10-31T08:33:11;19.50;89.70
30999;DHT22;20549;50.042;8.968;2022-10-31T08:35:37;19.40;89.20
30999;DHT22;20549;50.042;8.968;2022-10-31T08:38:04;19.20;88.60
30999;DHT22;20549;50.042;8.968;2022-10-31T08:40:31;19.10;88.70
30999;DHT22;20549;50.042;8.968;2022-10-31T08:43:01;18.90;89.50
30999;DHT22;20549;50.042;8.968;2022-10-31T08:45:27;18.80;90.20
30999;DHT22;20549;50.042;8.968;2022-10-31T08:47:56;18.70;90.80
30999;DHT22;20549;50.042;8.968;2022-10-31T08:50:20;18.60;91.30
30999;DHT22;20549;50.042;8.968;2022-10-31T08:52:46;18.50;91.90
30999;DHT22;20549;50.042;8.968;2022-10-31T08:55:13;18.50;92.40
30999;DHT22;20549;50.042;8.968;2022-10-31T08:57:39;18.50;92.50
30999;DHT22;20549;50.042;8.968;2022-10-31T09:00:06;18.60;92.80
30999;DHT22;20549;50.042;8.968;2022-10-31T09:02:33;18.60;93.20
30999;DHT22;20549;50.042;8.968;2022-10-31T09:04:59;18.70;93.50
30999;DHT22;20549;50.042;8.968;2022-10-31T09:07:26;18.80;93.70
30999;DHT22;20549;50.042;8.968;2022-10-31T09:09:53;18.90;93.80
30999;DHT22;20549;50.042;8.968;2022-10-31T09:12:19;19.00;93.90
30999;DHT22;20549;50.042;8.968;2022-10-31T09:14:46;19.10;93.70
30999;DHT22;20549;50.042;8.968;2022-10-31T09:17:12;19.20;93.60
30999;DHT22;20549;50.042;8.968;2022-10-31T09:19:39;19.30;93.20
30999;DHT22;20549;50.042;8.968;2022-10-31T09:22:05;19.40;93.30
30999;DHT22;20549;50.042;8.968;2022-10-31T09:24:32;19.60;93.30
30999;DHT22;20549;50.042;8.968;2022-10-31T09:26:59;19.70;93.50
30999;DHT22;20549;50.042;8.968;2022-10-31T09:29:25;19.90;93.60
30999;DHT22;20549;50.042;8.968;2022-10-31T09:31:52;20.00;93.40
30999;DHT22;20549;50.042;8.968;2022-10-31T09:34:18;20.20;93.20
30999;DHT22;20549;50.042;8.968;2022-10-31T09:36:45;20.40;92.80
30999;DHT22;20549;50.042;8.968;2022-10-31T09:39:12;20.50;92.10
30999;DHT22;20549;50.042;8.968;2022-10-31T09:45:00;20.70;90.60
30999;DHT22;20549;50.042;8.968;2022-10-31T09:47:49;20.80;90.10
30999;DHT22;20549;50.042;8.968;2022-10-31T09:50:17;20.80;89.60
30999;DHT22;20549;50.042;8.968;2022-10-31T09:52:43;20.80;89.50
30999;DHT22;20549;50.042;8.968;2022-10-31T09:55:18;20.80;88.90
30999;DHT22;20549;50.042;8.968;2022-10-31T09:57:43;20.80;88.10
30999;DHT22;20549;50.042;8.968;2022-10-31T10:00:14;20.80;87.80
30999;DHT22;20549;50.042;8.968;2022-10-31T10:02:51;20.80;87.80
30999;DHT22;20549;50.042;8.968;2022-10-31T10:05:24;20.80;87.30
30999;DHT22;20549;50.042;8.968;2022-10-31T10:07:54;20.80;87.10
30999;DHT22;20549;50.042;8.968;2022-10-31T10:18:22;20.70;86.90
30999;DHT22;20549;50.042;8.968;2022-10-31T10:20:58;20.70;86.90
30999;DHT22;20549;50.042;8.968;2022-10-31T10:26:21;20.60;86.80
30999;DHT22;20549;50.042;8.968;2022-10-31T10:28:48;20.60;86.80
30999;DHT22;20549;50.042;8.968;2022-10-31T10:33:40;20.60;86.40
30999;DHT22;20549;50.042;8.968;2022-10-31T10:36:14;20.60;86.70
30999;DHT22;20549;50.042;8.968;2022-10-31T10:38:50;20.50;87.10
30999;DHT22;20549;50.042;8.968;2022-10-31T10:41:17;20.50;87.40
30999;DHT22;20549;50.042;8.968;2022-10-31T10:43:43;20.50;87.60
30999;DHT22;20549;50.042;8.968;2022-10-31T10:46:34;20.60;88.00
30999;DHT22;20549;50.042;8.968;2022-10-31T10:52:19;20.60;88.00
30999;DHT22;20549;50.042;8.968;2022-10-31T10:59:37;20.70;87.20
30999;DHT22;20549;50.042;8.968;2022-10-31T11:02:08;20.80;88.00
30999;DHT22;20549;50.042;8.968;2022-10-31T11:04:34;20.80;87.50
30999;DHT22;20549;50.042;8.968;2022-10-31T11:07:06;20.90;87.10
30999;DHT22;20549;50.042;8.968;2022-10-31T11:09:32;20.90;87.00
30999;DHT22;20549;50.042;8.968;2022-10-31T11:11:59;21.00;86.80
30999;DHT22;20549;50.042;8.968;2022-10-31T11:14:26;21.00;86.70
30999;DHT22;20549;50.042;8.968;2022-10-31T11:17:06;21.10;86.30
30999;DHT22;20549;50.042;8.968;2022-10-31T11:19:23;21.10;86.20
30999;DHT22;20549;50.042;8.968;2022-10-31T11:21:48;21.10;85.90
30999;DHT22;20549;50.042;8.968;2022-10-31T11:24:16;21.20;85.80
30999;DHT22;20549;50.042;8.968;2022-10-31T11:26:42;21.20;85.30
30999;DHT22;20549;50.042;8.968;2022-10-31T11:29:24;21.20;84.80
30999;DHT22;20549;50.042;8.968;2022-10-31T11:31:46;21.30;84.70
30999;DHT22;20549;50.042;8.968;2022-10-31T11:34:15;21.30;84.50
30999;DHT22;20549;50.042;8.968;2022-10-31T11:36:42;21.40;85.10
30999;DHT22;20549;50.042;8.968;2022-10-31T11:39:12;21.40;84.50
30999;DHT22;20549;50.042;8.968;2022-10-31T11:41:36;21.50;84.60
30999;DHT22;20549;50.042;8.968;2022-10-31T11:44:10;21.50;84.30
30999;DHT22;20549;50.042;8.968;2022-10-31T11:46:45;21.60;84.20
30999;DHT22;20549;50.042;8.968;2022-10-31T11:51:52;21.70;83.50
30999;DHT22;20549;50.042;8.968;2022-10-31T11:54:25;21.70;83.20
30999;DHT22;20549;50.042;8.968;2022-10-31T11:56:50;21.80;82.60
30999;DHT22;20549;50.042;8.968;2022-10-31T11:59:27;21.70;82.10
30999;DHT22;20549;50.042;8.968;2022-10-31T12:01:52;21.80;82.00
30999;DHT22;20549;50.042;8.968;2022-10-31T12:04:18;21.70;82.00
30999;DHT22;20549;50.042;8.968;2022-10-31T12:06:45;21.70;82.10
30999;DHT22;20549;50.042;8.968;2022-10-31T12:09:30;21.70;81.70
30999;DHT22;20549;50.042;8.968;2022-10-31T12:14:53;21.70;82.10
30999;DHT22;20549;50.042;8.968;2022-10-31T12:17:22;21.70;82.30
30999;DHT22;20549;50.042;8.968;2022-10-31T12:22:47;21.60;82.80
30999;DHT22;20549;50.042;8.968;2022-10-31T12:31:13;21.80;83.40
30999;DHT22;20549;50.042;8.968;2022-10-31T12:33:58;21.80;83.10
30999;DHT22;20549;50.042;8.968;2022-10-31T12:41:52;22.00;82.60
30999;DHT22;20549;50.042;8.968;2022-10-31T12:44:43;22.00;82.20
30999;DHT22;20549;50.042;8.968;2022-10-31T12:55:44;22.20;82.00
30999;DHT22;20549;50.042;8.968;2022-10-31T12:58:30;22.30;81.70
30999;DHT22;20549;50.042;8.968;2022-10-31T13:01:15;22.30;81.60
30999;DHT22;20549;50.042;8.968;2022-10-31T13:03:51;22.40;81.30
30999;DHT22;20549;50.042;8.968;2022-10-31T13:06:19;22.40;80.80
30999;DHT22;20549;50.042;8.968;2022-10-31T13:08:59;22.50;80.80
30999;DHT22;20549;50.042;8.968;2022-10-31T13:11:41;22.50;80.40
30999;DHT22;20549;50.042;8.968;2022-10-31T13:14:26;22.50;80.00
30999;DHT22;20549;50.042;8.968;2022-10-31T13:16:53;22.50;79.60
30999;DHT22;20549;50.042;8.968;2022-10-31T13:19:20;22.50;79.30
30999;DHT22;20549;50.042;8.968;2022-10-31T13:24:19;22.50;79.40
30999;DHT22;20549;50.042;8.968;2022-10-31T13:29:17;22.40;79.10
30999;DHT22;20549;50.042;8.968;2022-10-31T13:31:41;22.40;78.90
30999;DHT22;20549;50.042;8.968;2022-10-31T13:34:22;22.40;78.60
30999;DHT22;20549;50.042;8.968;2022-10-31T13:36:48;22.30;78.70
30999;DHT22;20549;50.042;8.968;2022-10-31T13:42:01;22.20;79.20
30999;DHT22;20549;50.042;8.968;2022-10-31T13:44:26;22.20;79.40
30999;DHT22;20549;50.042;8.968;2022-10-31T13:46:53;22.10;79.30
30999;DHT22;20549;50.042;8.968;2022-10-31T13:54:40;22.10;79.60
30999;DHT22;20549;50.042;8.968;2022-10-31T14:00:03;22.00;80.00
30999;DHT22;20549;50.042;8.968;2022-10-31T14:02:33;22.00;80.30
30999;DHT22;20549;50.042;8.968;2022-10-31T14:05:19;21.90;80.30
30999;DHT22;20549;50.042;8.968;2022-10-31T14:07:34;21.90;80.60
30999;DHT22;20549;50.042;8.968;2022-10-31T14:10:07;21.90;80.30
30999;DHT22;20549;50.042;8.968;2022-10-31T14:12:42;21.90;80.00
30999;DHT22;20549;50.042;8.968;2022-10-31T14:15:21;21.90;79.80
30999;DHT22;20549;50.042;8.968;2022-10-31T14:17:53;21.90;79.70
30999;DHT22;20549;50.042;8.968;2022-10-31T14:22:43;21.70;79.50
30999;DHT22;20549;50.042;8.968;2022-10-31T14:25:29;21.70;79.80
30999;DHT22;20549;50.042;8.968;2022-10-31T14:27:54;21.60;79.90
30999;DHT22;20549;50.042;8.968;2022-10-31T14:30:21;21.60;80.10
30999;DHT22;20549;50.042;8.968;2022-10-31T14:32:56;21.50;80.30
30999;DHT22;20549;50.042;8.968;2022-10-31T14:35:15;21.50;80.50
30999;DHT22;20549;50.042;8.968;2022-10-31T14:40:39;21.40;81.00
30999;DHT22;20549;50.042;8.968;2022-10-31T14:43:08;21.30;81.20
30999;DHT22;20549;50.042;8.968;2022-10-31T14:50:57;21.10;81.50
30999;DHT22;20549;50.042;8.968;2022-10-31T14:53:29;21.10;81.90
30999;DHT22;20549;50.042;8.968;2022-10-31T14:55:56;21.10;82.20
30999;DHT22;20549;50.042;8.968;2022-10-31T14:58:49;21.00;82.60
30999;DHT22;20549;50.042;8.968;2022-10-31T15:01:06;21.00;82.90
30999;DHT22;20549;50.042;8.968;2022-10-31T15:03:34;21.00;83.40
30999;DHT22;20549;50.042;8.968;2022-10-31T15:06:03;21.00;83.80
30999;DHT22;20549;50.042;8.968;2022-10-31T15:08:33;21.00;84.20
30999;DHT22;20549;50.042;8.968;2022-10-31T15:11:02;21.10;84.40
30999;DHT22;20549;50.042;8.968;2022-10-31T15:13:25;21.10;84.40
30999;DHT22;20549;50.042;8.968;2022-10-31T15:15:52;21.10;84.40
30999;DHT22;20549;50.042;8.968;2022-10-31T15:18:24;21.10;84.30
30999;DHT22;20549;50.042;8.968;2022-10-31T15:20:50;21.10;84.20
30999;DHT22;20549;50.042;8.968;2022-10-31T15:23:21;21.10;84.10
30999;DHT22;20549;50.042;8.968;2022-10-31T15:25:43;21.10;84.20
30999;DHT22;20549;50.042;8.968;2022-10-31T15:28:14;21.00;84.00
30999;DHT22;20549;50.042;8.968;2022-10-31T15:30:39;21.00;84.30
30999;DHT22;20549;50.042;8.968;2022-10-31T15:33:24;20.90;84.00
30999;DHT22;20549;50.042;8.968;2022-10-31T15:35:55;20.80;84.00
30999;DHT22;20549;50.042;8.968;2022-10-31T15:38:20;20.70;83.90
30999;DHT22;20549;50.042;8.968;2022-10-31T15:40:54;20.60;83.90
30999;DHT22;20549;50.042;8.968;2022-10-31T15:43:19;20.50;84.10
30999;DHT22;20549;50.042;8.968;2022-10-31T15:45:46;20.30;84.10
30999;DHT22;20549;50.042;8.968;2022-10-31T15:48:16;20.20;84.40
30999;DHT22;20549;50.042;8.968;2022-10-31T15:50:48;20.00;84.60
30999;DHT22;20549;50.042;8.968;2022-10-31T15:53:21;19.90;85.00
30999;DHT22;20549;50.042;8.968;2022-10-31T15:55:53;19.80;85.70
30999;DHT22;20549;50.042;8.968;2022-10-31T15:58:16;19.60;86.00
30999;DHT22;20549;50.042;8.968;2022-10-31T16:00:42;19.50;86.60
30999;DHT22;20549;50.042;8.968;2022-10-31T16:05:45;19.20;87.80
30999;DHT22;20549;50.042;8.968;2022-10-31T16:08:23;19.10;88.30
30999;DHT22;20549;50.042;8.968;2022-10-31T16:10:49;18.90;89.00
30999;DHT22;20549;50.042;8.968;2022-10-31T16:13:16;18.80;89.80
30999;DHT22;20549;50.042;8.968;2022-10-31T16:15:56;18.70;90.30
30999;DHT22;20549;50.042;8.968;2022-10-31T16:18:21;18.70;90.90
30999;DHT22;20549;50.042;8.968;2022-10-31T16:20:48;18.50;91.00
30999;DHT22;20549;50.042;8.968;2022-10-31T16:23:15;18.50;91.40
30999;DHT22;20549;50.042;8.968;2022-10-31T16:25:41;18.40;91.90
30999;DHT22;20549;50.042;8.968;2022-10-31T16:31:11;18.30;92.70
30999;DHT22;20549;50.042;8.968;2022-10-31T16:33:33;18.30;93.00
30999;DHT22;20549;50.042;8.968;2022-10-31T16:36:30;18.30;93.40
30999;DHT22;20549;50.042;8.968;2022-10-31T16:38:56;18.30;93.70
30999;DHT22;20549;50.042;8.968;2022-10-31T16:41:22;18.20;93.80
30999;DHT22;20549;50.042;8.968;2022-10-31T16:43:49;18.20;94.10
30999;DHT22;20549;50.042;8.968;2022-10-31T16:46:18;18.30;94.30
30999;DHT22;20549;50.042;8.968;2022-10-31T16:48:42;18.20;94.60
30999;DHT22;20549;50.042;8.968;2022-10-31T16:51:09;18.20;94.80
30999;DHT22;20549;50.042;8.968;2022-10-31T16:53:35;18.20;94.90
30999;DHT22;20549;50.042;8.968;2022-10-31T16:56:02;18.20;95.00
30999;DHT22;20549;50.042;8.968;2022-10-31T16:58:29;18.20;95.30
30999;DHT22;20549;50.042;8.968;2022-10-31T17:00:55;18.20;95.40
30999;DHT22;20549;50.042;8.968;2022-10-31T17:03:22;18.20;95.50
30999;DHT22;20549;50.042;8.968;2022-10-31T17:05:48;18.20;95.70
30999;DHT22;20549;50.042;8.968;2022-10-31T17:08:15;18.20;95.70
30999;DHT22;20549;50.042;8.968;2022-10-31T17:10:42;18.20;95.70
30999;DHT22;20549;50.042;8.968;2022-10-31T17:13:11;18.20;96.20
30999;DHT22;20549;50.042;8.968;2022-10-31T17:15:38;18.20;95.90
30999;DHT22;20549;50.042;8.968;2022-10-31T17:18:04;18.20;95.70
30999;DHT22;20549;50.042;8.968;2022-10-31T17:20:30;18.20;95.60
30999;DHT22;20549;50.042;8.968;2022-10-31T17:22:57;18.20;95.50
30999;DHT22;20549;50.042;8.968;2022-10-31T17:25:25;18.20;95.50